Time;durP1;ratioP1;P1;durP2;ratioP2;P2;SDS_P1;SDS_P2;PMS_P1;PMS_P2;Temp;Humidity;BMP_temperature;BMP_pressure;BME280_temperature;BME280_humidity;BME280_pressure;Samples;Min_cycle;Max_cycle;Signal;HPM_P1;HPM_P2
2022/09/09 00:01:30;;;;;;;10.93;8.80;;;;;;;20.22;56.11;95138.81;5009901;28;20303;-66
2022/09/09 00:04:11;;;;;;;11.80;9.27;;;;;;;20.16;56.31;95128.19;5010048;28;20517;-71
2022/09/09 00:07:18;;;;;;;12.63;9.93;;;;;;;20.09;56.49;95128.16;5005985;28;20222;-69
2022/09/09 00:09:54;;;;;;;10.35;9.45;;;;;;;20.39;55.53;95125.03;4970572;28;20276;-66
2022/09/09 00:12:44;;;;;;;12.00;10.00;;;;;;;20.02;56.67;95128.19;4959306;28;20664;-66
2022/09/09 00:15:19;;;;;;;11.25;10.02;;;;;;;20.10;56.91;95129.84;4949425;28;20224;-69
2022/09/09 00:17:56;;;;;;;10.40;9.50;;;;;;;20.00;57.24;95137.44;4956901;28;20256;-66
2022/09/09 00:20:50;;;;;;;10.93;9.88;;;;;;;20.16;56.94;95136.19;4967727;28;20563;-66
2022/09/09 00:23:24;;;;;;;10.43;9.43;;;;;;;20.10;57.00;95127.16;4959229;28;20321;-68
2022/09/09 00:25:54;;;;;;;12.23;10.20;;;;;;;19.98;57.26;95116.28;4953582;28;20272;-72
2022/09/09 00:28:25;;;;;;;10.82;9.82;;;;;;;19.87;57.25;95106.25;4945372;28;20865;-71
2022/09/09 00:30:50;;;;;;;11.30;10.20;;;;;;;19.82;57.48;95103.38;4949893;28;20772;-70
2022/09/09 00:33:22;;;;;;;12.10;10.43;;;;;;;19.77;57.65;95098.66;4953281;28;20229;-68
2022/09/09 00:35:50;;;;;;;10.70;9.63;;;;;;;19.74;57.63;95099.06;4952488;28;20255;-68
2022/09/09 00:38:36;;;;;;;9.38;8.48;;;;;;;19.80;57.61;95103.56;4967364;28;20660;-68
2022/09/09 00:41:39;;;;;;;10.75;9.70;;;;;;;19.87;57.26;95098.25;4953876;28;20236;-71
2022/09/09 00:44:29;;;;;;;10.27;9.27;;;;;;;20.01;56.60;95085.69;4890168;29;20230;-65
2022/09/09 00:47:04;;;;;;;12.30;10.43;;;;;;;20.03;56.41;95081.78;4922356;29;20265;-67
2022/09/09 00:49:47;;;;;;;10.73;9.73;;;;;;;19.85;56.89;95084.28;4941602;28;20319;-67
2022/09/09 00:52:22;;;;;;;10.85;9.77;;;;;;;19.72;57.16;95089.63;4933906;29;20253;-70
2022/09/09 00:54:51;;;;;;;10.35;9.30;;;;;;;19.73;56.76;95093.97;4948857;28;20224;-69
2022/09/09 00:57:29;;;;;;;10.18;9.18;;;;;;;19.75;56.98;95095.38;4951593;28;20201;-69
2022/09/09 01:00:20;;;;;;;9.80;8.95;;;;;;;19.86;56.83;95091.28;4951711;28;20306;-70
2022/09/09 01:03:04;;;;;;;9.88;8.98;;;;;;;19.77;57.01;95084.50;4932339;29;20257;-70
2022/09/09 01:05:50;;;;;;;10.45;9.45;;;;;;;19.67;57.30;95084.09;4934636;29;20235;-70
2022/09/09 01:08:31;;;;;;;10.07;9.07;;;;;;;19.71;57.07;95085.34;4871308;29;20240;-67
2022/09/09 01:10:59;;;;;;;11.27;10.23;;;;;;;19.59;57.54;95093.09;4841332;29;20263;-65
2022/09/09 01:13:31;;;;;;;10.52;9.57;;;;;;;19.39;58.55;95093.09;4831094;29;20242;-64
2022/09/09 01:16:08;;;;;;;10.57;9.57;;;;;;;19.68;57.78;95093.75;4871915;29;20232;-65
2022/09/09 01:18:37;;;;;;;11.00;10.10;;;;;;;19.47;58.43;95092.06;4855680;29;20215;-68
2022/09/09 01:21:20;;;;;;;11.00;9.70;;;;;;;19.63;57.93;95091.66;4887531;29;20221;-67
2022/09/09 01:24:01;;;;;;;10.73;9.65;;;;;;;19.75;57.64;95094.53;4912608;29;20564;-64
2022/09/09 01:26:29;;;;;;;13.15;10.40;;;;;;;19.30;59.26;95096.97;4926012;29;20401;-65
2022/09/09 01:28:55;;;;;;;10.57;9.60;;;;;;;19.41;58.74;95095.56;4913065;29;20268;-67
2022/09/09 01:31:31;;;;;;;10.75;9.77;;;;;;;19.40;58.67;95086.72;4905447;29;20297;-65
2022/09/09 01:33:56;;;;;;;10.98;9.73;;;;;;;19.26;59.09;95087.75;4940422;29;20268;-67
2022/09/09 01:36:30;;;;;;;12.27;10.27;;;;;;;19.42;58.82;95095.34;4914098;29;20201;-67
2022/09/09 01:38:56;;;;;;;10.85;9.85;;;;;;;19.11;59.75;95103.91;4910704;29;20311;-67
2022/09/09 01:41:22;;;;;;;10.18;9.20;;;;;;;19.31;59.17;95110.09;4907331;29;20316;-65
2022/09/09 01:43:48;;;;;;;9.65;8.75;;;;;;;19.29;58.99;95106.81;4925414;29;20622;-66
2022/09/09 01:46:14;;;;;;;10.35;9.40;;;;;;;19.08;59.71;95096.34;5007365;28;20239;-66
2022/09/09 01:48:42;;;;;;;11.65;9.68;;;;;;;19.12;59.79;95105.56;5006881;28;20229;-71
2022/09/09 01:51:10;;;;;;;11.13;10.02;;;;;;;19.15;59.67;95105.16;5017033;28;20318;-72
2022/09/09 01:53:37;;;;;;;10.25;9.25;;;;;;;18.99;60.22;95110.88;5002060;28;20250;-70
2022/09/09 01:56:31;;;;;;;10.10;9.20;;;;;;;19.14;60.00;95114.19;5004952;28;20223;-71
2022/09/09 01:59:19;;;;;;;12.52;10.52;;;;;;;19.13;59.73;95117.88;5005000;28;20238;-71
2022/09/09 02:02:08;;;;;;;11.20;10.13;;;;;;;19.26;59.01;95123.22;4993465;28;20231;-71
2022/09/09 02:04:46;;;;;;;11.02;9.95;;;;;;;19.05;59.70;95113.53;4999001;28;20218;-72
2022/09/09 02:07:15;;;;;;;10.70;9.70;;;;;;;19.01;59.90;95115.00;5008424;28;20302;-72
2022/09/09 02:09:45;;;;;;;10.50;9.38;;;;;;;19.06;59.92;95109.88;5006420;28;20294;-66
2022/09/09 02:12:17;;;;;;;10.15;9.25;;;;;;;18.99;59.86;95111.69;5008906;28;20214;-72
2022/09/09 02:14:50;;;;;;;11.13;10.13;;;;;;;19.13;59.80;95107.22;5003142;28;20786;-72
2022/09/09 02:17:24;;;;;;;10.70;9.73;;;;;;;18.98;60.17;95098.56;5003167;28;20286;-65
2022/09/09 02:19:59;;;;;;;11.18;10.18;;;;;;;18.85;60.46;95092.19;5007890;28;20223;-65
2022/09/09 02:22:28;;;;;;;10.73;9.63;;;;;;;18.70;61.39;95086.16;5000650;28;20218;-65
2022/09/09 02:24:58;;;;;;;10.98;9.10;;;;;;;18.66;61.28;95083.09;5007606;28;20865;-66
2022/09/09 02:27:24;;;;;;;10.80;9.60;;;;;;;18.67;61.67;95087.38;5010526;28;20236;-71
2022/09/09 02:29:52;;;;;;;11.00;9.85;;;;;;;18.76;61.12;95092.56;5006445;28;20294;-66
2022/09/09 02:32:22;;;;;;;10.50;9.50;;;;;;;18.69;61.05;95090.69;5023548;28;20219;-69
2022/09/09 02:34:54;;;;;;;10.57;9.45;;;;;;;18.48;61.91;95104.13;5008319;28;20330;-67
2022/09/09 02:37:24;;;;;;;11.43;9.73;;;;;;;18.65;61.60;95100.06;5007954;28;20265;-69
2022/09/09 02:39:50;;;;;;;12.50;10.20;;;;;;;18.89;59.99;95097.94;5003342;28;20254;-70
2022/09/09 02:42:16;;;;;;;11.68;10.68;;;;;;;18.73;60.33;95104.41;5006273;28;20219;-71
2022/09/09 02:44:42;;;;;;;10.93;10.00;;;;;;;18.46;61.20;95106.16;4997877;28;20223;-69
2022/09/09 02:47:19;;;;;;;11.40;10.32;;;;;;;18.58;61.07;95114.38;5002643;28;20261;-70
2022/09/09 02:50:03;;;;;;;11.55;10.45;;;;;;;18.71;60.29;95114.44;5006559;28;20296;-68
2022/09/09 02:52:58;;;;;;;12.10;10.38;;;;;;;18.63;60.61;95122.59;5004989;28;20330;-69
2022/09/09 02:55:32;;;;;;;10.25;9.35;;;;;;;18.47;61.09;95108.63;5000586;28;20227;-69
2022/09/09 02:57:59;;;;;;;11.43;10.25;;;;;;;18.59;60.91;95113.38;5007700;28;20679;-71
2022/09/09 03:00:28;;;;;;;10.93;9.82;;;;;;;18.54;60.74;95107.84;5002834;28;20226;-69
2022/09/09 03:02:54;;;;;;;11.63;10.43;;;;;;;18.33;61.33;95098.94;4997907;28;20258;-71
2022/09/09 03:05:20;;;;;;;10.85;9.85;;;;;;;18.47;61.16;95108.63;5000605;28;20230;-66
2022/09/09 03:07:46;;;;;;;12.10;10.75;;;;;;;18.45;60.79;95109.84;5011293;28;20226;-72
2022/09/09 03:10:13;;;;;;;10.65;9.70;;;;;;;18.47;60.68;95115.78;5017470;28;20650;-68
2022/09/09 03:12:38;;;;;;;12.93;10.77;;;;;;;18.58;60.58;95120.56;5009105;28;20219;-69
2022/09/09 03:15:05;;;;;;;11.30;10.15;;;;;;;18.59;60.50;95116.06;5004406;28;20212;-69
2022/09/09 03:17:31;;;;;;;11.40;9.85;;;;;;;18.64;60.60;95121.59;5002594;28;20895;-65
2022/09/09 03:19:57;;;;;;;11.50;10.45;;;;;;;18.63;60.67;95114.63;4991160;28;20231;-65
2022/09/09 03:22:23;;;;;;;11.85;10.10;;;;;;;18.43;61.60;95115.38;5010317;28;20218;-66
2022/09/09 03:24:48;;;;;;;11.43;10.32;;;;;;;18.28;62.03;95114.66;5010963;28;20217;-66
2022/09/09 03:27:17;;;;;;;11.25;10.20;;;;;;;18.25;62.26;95104.41;5008927;28;20231;-70
2022/09/09 03:29:42;;;;;;;11.05;10.15;;;;;;;18.27;62.29;95113.03;4991646;28;20231;-69
2022/09/09 03:32:10;;;;;;;12.60;10.45;;;;;;;18.28;62.07;95114.66;4997665;28;20238;-72
2022/09/09 03:34:36;;;;;;;11.38;10.35;;;;;;;18.41;61.12;95114.72;5009159;28;20230;-67
2022/09/09 03:37:02;;;;;;;11.63;10.35;;;;;;;18.38;61.34;95120.47;5002954;28;20265;-69
2022/09/09 03:39:28;;;;;;;11.73;10.63;;;;;;;18.33;61.74;95111.41;5010863;28;20293;-71
2022/09/09 03:41:54;;;;;;;11.50;10.40;;;;;;;18.36;61.73;95109.19;5001923;28;20222;-71
2022/09/09 03:44:19;;;;;;;11.95;9.82;;;;;;;18.29;61.86;95109.16;5010785;28;20297;-66
2022/09/09 03:46:45;;;;;;;11.57;10.50;;;;;;;18.20;62.53;95102.38;5008981;28;20230;-71
2022/09/09 03:49:10;;;;;;;13.35;11.00;;;;;;;18.33;62.21;95101.59;4999908;28;20223;-68
2022/09/09 03:51:36;;;;;;;12.45;11.23;;;;;;;18.33;61.90;95112.22;5012536;28;20211;-69
2022/09/09 03:54:04;;;;;;;13.30;11.98;;;;;;;18.36;62.01;95111.84;5008611;28;20210;-68
2022/09/09 03:56:31;;;;;;;16.73;10.82;;;;;;;18.29;62.46;95113.66;5019388;28;20226;-66
2022/09/09 03:58:57;;;;;;;14.90;10.95;;;;;;;18.27;62.12;95118.34;4998542;28;20226;-70
2022/09/09 04:01:23;;;;;;;16.67;11.48;;;;;;;18.28;62.63;95118.19;5009731;28;20916;-69
2022/09/09 04:03:50;;;;;;;13.02;11.07;;;;;;;18.30;62.25;95123.28;5008731;28;20235;-65
2022/09/09 04:06:16;;;;;;;12.23;11.05;;;;;;;18.23;62.57;95131.25;5020062;28;20210;-71
2022/09/09 04:08:42;;;;;;;14.90;10.88;;;;;;;18.15;62.84;95133.22;5003292;28;20226;-70
2022/09/09 04:11:08;;;;;;;13.77;11.65;;;;;;;18.12;63.10;95131.78;5016194;28;20278;-70
2022/09/09 04:13:34;;;;;;;15.93;12.25;;;;;;;18.18;62.81;95131.00;5000743;28;20219;-66
2022/09/09 04:16:01;;;;;;;17.35;12.20;;;;;;;18.29;62.47;95122.47;5000232;28;20856;-72
2022/09/09 04:18:30;;;;;;;13.32;11.40;;;;;;;18.36;62.11;95125.16;5003297;28;20637;-70
2022/09/09 04:20:57;;;;;;;12.15;10.73;;;;;;;18.23;62.82;95111.78;5017985;28;20234;-72
2022/09/09 04:23:24;;;;;;;14.27;11.57;;;;;;;18.24;62.68;95119.56;5010245;28;20231;-73
2022/09/09 04:25:53;;;;;;;13.40;10.80;;;;;;;18.52;61.80;95119.50;5007051;28;20397;-70
2022/09/09 04:28:21;;;;;;;12.90;11.57;;;;;;;18.38;61.89;95124.97;5008571;28;20326;-73
2022/09/09 04:30:49;;;;;;;16.30;11.85;;;;;;;18.19;62.80;95122.00;5009010;28;20213;-68
2022/09/09 04:33:17;;;;;;;12.88;11.57;;;;;;;18.25;62.63;95123.03;5000473;28;20688;-71
2022/09/09 04:35:50;;;;;;;14.95;11.27;;;;;;;18.25;62.38;95117.72;5004152;28;20223;-66
2022/09/09 04:38:16;;;;;;;11.57;10.52;;;;;;;18.25;62.77;95121.19;5004024;28;20227;-68
2022/09/09 04:40:51;;;;;;;14.57;11.05;;;;;;;18.21;62.79;95125.28;5005222;28;20243;-69
2022/09/09 04:43:17;;;;;;;12.60;11.25;;;;;;;18.36;62.14;95129.66;5009178;28;20214;-70
2022/09/09 04:45:43;;;;;;;13.13;11.82;;;;;;;18.33;62.42;95138.03;5006978;28;20260;-70
2022/09/09 04:48:11;;;;;;;12.90;11.60;;;;;;;18.36;62.45;95137.66;5003744;28;20309;-70
2022/09/09 04:50:37;;;;;;;13.23;11.75;;;;;;;18.37;62.44;95129.47;5005431;28;20227;-71
2022/09/09 04:53:04;;;;;;;13.98;11.50;;;;;;;18.39;62.18;95116.78;5009028;28;20227;-72
2022/09/09 04:55:31;;;;;;;13.27;11.93;;;;;;;18.34;62.29;95110.41;5009732;28;20214;-70
2022/09/09 04:57:57;;;;;;;13.18;11.35;;;;;;;18.48;61.80;95114.78;5007570;28;20290;-67
2022/09/09 05:00:23;;;;;;;13.07;11.77;;;;;;;18.51;61.23;95111.72;5009302;28;20282;-69
2022/09/09 05:02:48;;;;;;;13.30;11.90;;;;;;;18.60;60.37;95109.69;4996825;28;20314;-72
2022/09/09 05:05:14;;;;;;;13.18;11.88;;;;;;;18.67;60.33;95113.22;5006067;28;20222;-69
2022/09/09 05:07:39;;;;;;;13.57;12.27;;;;;;;18.58;60.93;95111.72;5000418;28;20952;-69
2022/09/09 05:10:05;;;;;;;13.32;11.90;;;;;;;18.62;61.20;95099.66;5004621;28;20219;-70
2022/09/09 05:12:31;;;;;;;15.77;12.20;;;;;;;18.66;61.16;95087.59;4998704;28;20209;-65
2022/09/09 05:14:57;;;;;;;13.82;11.57;;;;;;;18.83;60.60;95088.09;5000830;28;20333;-70
2022/09/09 05:17:23;;;;;;;13.75;12.35;;;;;;;18.90;60.38;95105.75;5005610;28;20378;-69
2022/09/09 05:19:49;;;;;;;13.95;12.30;;;;;;;18.94;60.09;95112.28;4998327;28;20231;-69
2022/09/09 05:22:22;;;;;;;15.20;12.50;;;;;;;18.60;60.99;95110.50;5001174;28;20235;-66
2022/09/09 05:24:50;;;;;;;22.75;10.90;;;;;;;18.42;61.18;95100.41;5008545;28;20218;-65
2022/09/09 05:27:17;;;;;;;13.02;11.73;;;;;;;18.80;60.21;95091.97;5005035;28;20853;-72
2022/09/09 05:29:44;;;;;;;12.07;10.73;;;;;;;18.92;59.39;95098.38;5008759;28;20219;-65
2022/09/09 05:32:09;;;;;;;12.25;11.15;;;;;;;19.10;59.03;95094.28;5008643;28;20664;-66
2022/09/09 05:34:35;;;;;;;12.82;9.88;;;;;;;19.23;58.41;95088.97;5007757;28;20303;-66
2022/09/09 05:37:00;;;;;;;14.02;9.88;;;;;;;19.18;58.01;95094.09;5008819;28;20210;-71
2022/09/09 05:39:26;;;;;;;15.25;10.07;;;;;;;19.44;57.27;95101.31;5004325;28;20211;-71
2022/09/09 05:41:51;;;;;;;9.55;8.65;;;;;;;19.46;56.76;95098.41;4996933;28;20225;-65
2022/09/09 05:44:17;;;;;;;10.35;8.90;;;;;;;19.46;56.79;95101.09;5009261;28;20577;-69
2022/09/09 05:46:42;;;;;;;11.02;9.88;;;;;;;19.43;56.89;95102.31;5009064;28;20238;-70
2022/09/09 05:49:08;;;;;;;10.43;9.43;;;;;;;19.52;57.12;95108.28;5008446;28;20328;-65
2022/09/09 05:51:34;;;;;;;12.32;9.65;;;;;;;19.61;56.39;95109.72;5005180;28;20669;-66
2022/09/09 05:53:59;;;;;;;10.48;9.48;;;;;;;19.85;55.83;95110.97;5003516;28;20293;-69
2022/09/09 05:56:28;;;;;;;12.65;8.93;;;;;;;19.72;56.08;95101.13;5005515;28;20223;-72
2022/09/09 05:58:54;;;;;;;10.25;9.30;;;;;;;19.76;55.46;95107.69;5002251;28;20219;-70
2022/09/09 06:01:26;;;;;;;9.80;8.52;;;;;;;19.75;54.96;95106.06;5004459;28;20207;-68
2022/09/09 06:03:52;;;;;;;9.57;8.57;;;;;;;19.85;54.43;95107.47;5007689;28;20252;-65
2022/09/09 06:06:26;;;;;;;9.02;8.15;;;;;;;19.81;54.44;95115.09;5009721;28;20231;-72
2022/09/09 06:08:54;;;;;;;12.32;8.50;;;;;;;19.85;54.26;95120.81;5007658;28;20245;-72
2022/09/09 06:11:27;;;;;;;9.30;7.95;;;;;;;19.89;54.48;95128.22;5005484;28;20559;-71
2022/09/09 06:13:54;;;;;;;9.45;8.38;;;;;;;19.97;53.43;95121.84;5007047;28;20222;-68
2022/09/09 06:16:24;;;;;;;8.73;7.82;;;;;;;20.07;52.86;95124.06;5007036;28;20233;-72
2022/09/09 06:18:51;;;;;;;9.48;8.50;;;;;;;20.15;52.72;95111.31;5009371;28;20237;-69
2022/09/09 06:21:25;;;;;;;11.30;7.93;;;;;;;20.21;52.70;95115.03;5005336;28;20222;-71
2022/09/09 06:23:53;;;;;;;10.77;8.70;;;;;;;20.38;52.39;95116.19;5004826;28;20470;-69
2022/09/09 06:26:26;;;;;;;10.63;8.98;;;;;;;20.40;52.22;95119.47;5015178;28;20321;-70
2022/09/09 06:28:54;;;;;;;13.50;9.43;;;;;;;20.37;51.95;95113.72;4995131;28;20223;-69
2022/09/09 06:31:21;;;;;;;9.60;8.27;;;;;;;20.46;52.23;95123.16;4996943;28;20828;-66
2022/09/09 06:33:49;;;;;;;11.63;8.65;;;;;;;20.52;52.14;95118.81;5021616;28;20294;-66
2022/09/09 06:36:41;;;;;;;9.23;8.25;;;;;;;20.66;51.27;95115.09;5011738;28;20210;-71
2022/09/09 06:39:07;;;;;;;10.18;8.80;;;;;;;20.69;51.23;95107.50;5005325;28;20638;-66
2022/09/09 06:41:33;;;;;;;11.77;9.02;;;;;;;20.78;51.40;95107.25;5008888;28;20223;-66
2022/09/09 06:43:58;;;;;;;9.75;8.50;;;;;;;20.61;51.09;95109.56;5008754;28;20225;-70
2022/09/09 06:46:29;;;;;;;9.90;8.93;;;;;;;20.63;51.26;95110.19;5010714;28;20230;-71
2022/09/09 06:48:57;;;;;;;9.63;8.60;;;;;;;20.78;50.70;95102.72;5010012;28;20214;-68
2022/09/09 06:51:25;;;;;;;9.65;8.02;;;;;;;20.76;50.94;95118.13;5008628;28;20281;-69
2022/09/09 06:53:53;;;;;;;10.35;9.25;;;;;;;20.87;49.64;95113.97;5006170;28;20310;-69
2022/09/09 06:56:24;;;;;;;13.32;9.07;;;;;;;20.91;49.54;95124.03;5010953;28;20330;-69
2022/09/09 06:58:51;;;;;;;11.38;9.07;;;;;;;21.03;49.94;95128.69;5002380;28;20306;-69
2022/09/09 07:01:19;;;;;;;11.75;8.15;;;;;;;21.04;49.67;95125.00;5009563;28;20222;-69
2022/09/09 07:03:50;;;;;;;10.38;7.38;;;;;;;20.90;49.22;95124.22;5011589;28;20202;-65
2022/09/09 07:06:21;;;;;;;7.80;7.00;;;;;;;20.95;49.18;95127.09;5005073;28;20241;-72
2022/09/09 07:08:58;;;;;;;8.98;7.32;;;;;;;20.79;49.58;95125.72;5003370;28;20219;-71
2022/09/09 07:11:27;;;;;;;8.07;7.32;;;;;;;21.02;48.93;95132.41;5003325;28;20246;-72
2022/09/09 07:13:53;;;;;;;8.38;7.63;;;;;;;21.15;48.58;95127.81;5003856;28;20223;-65
2022/09/09 07:16:20;;;;;;;8.63;7.53;;;;;;;21.36;48.21;95121.31;5003488;28;20825;-65
2022/09/09 07:18:46;;;;;;;8.18;7.47;;;;;;;20.98;49.24;95115.97;5010745;28;20203;-71
2022/09/09 07:21:14;;;;;;;8.25;7.45;;;;;;;21.11;49.00;95121.25;5010230;28;20231;-70
2022/09/09 07:23:41;;;;;;;11.20;7.95;;;;;;;21.11;48.74;95118.56;5010674;28;20546;-66
2022/09/09 07:26:13;;;;;;;9.25;7.38;;;;;;;21.21;48.41;95117.28;5008902;28;20243;-70
2022/09/09 07:28:40;;;;;;;9.77;6.82;;;;;;;21.18;48.49;95115.06;4998602;28;20318;-66
2022/09/09 07:31:13;;;;;;;8.10;6.70;;;;;;;21.33;48.31;95118.22;4997303;28;20228;-66
2022/09/09 07:33:40;;;;;;;11.45;6.75;;;;;;;21.64;47.62;95109.41;5010217;28;20705;-70
2022/09/09 07:36:23;;;;;;;8.65;7.38;;;;;;;21.88;47.41;95104.25;5015766;28;20223;-68
2022/09/09 07:39:00;;;;;;;8.23;7.30;;;;;;;22.07;46.85;95108.59;5003177;28;20237;-70
2022/09/09 07:41:28;;;;;;;8.82;7.35;;;;;;;22.14;46.71;95108.53;5018102;28;20257;-71
2022/09/09 07:43:54;;;;;;;9.18;7.10;;;;;;;22.05;45.65;95116.03;5008938;28;20227;-70
2022/09/09 07:46:21;;;;;;;8.88;6.50;;;;;;;22.14;46.00;95119.25;5009248;28;20634;-71
2022/09/09 07:48:53;;;;;;;7.35;6.63;;;;;;;22.60;44.99;95112.59;5011101;28;20397;-66
2022/09/09 07:51:22;;;;;;;8.68;6.50;;;;;;;22.79;44.45;95116.09;4999695;28;20273;-67
2022/09/09 07:53:48;;;;;;;7.00;5.93;;;;;;;22.54;44.28;95116.19;5000837;28;20244;-71
2022/09/09 07:56:16;;;;;;;10.77;5.75;;;;;;;22.78;43.76;95114.47;5018151;28;20688;-70
2022/09/09 07:58:45;;;;;;;9.63;6.25;;;;;;;22.75;43.66;95114.88;5007184;28;20227;-70
2022/09/09 08:01:23;;;;;;;6.60;6.00;;;;;;;23.02;43.28;95112.75;5002736;28;20210;-71
2022/09/09 08:03:55;;;;;;;9.10;5.68;;;;;;;23.17;43.06;95102.41;5002872;28;20207;-66
2022/09/09 08:06:22;;;;;;;6.00;5.40;;;;;;;23.37;42.29;95106.69;5006982;28;20341;-72
2022/09/09 08:08:50;;;;;;;5.75;5.25;;;;;;;23.60;42.01;95106.69;5002173;28;20226;-72
2022/09/09 08:11:16;;;;;;;6.75;5.35;;;;;;;23.59;41.50;95109.63;5009781;28;20218;-73
2022/09/09 08:13:43;;;;;;;5.93;5.32;;;;;;;23.72;41.02;95115.63;5011333;28;20289;-66
2022/09/09 08:16:08;;;;;;;6.75;5.82;;;;;;;23.52;40.99;95120.47;5006834;28;20214;-71
2022/09/09 08:18:35;;;;;;;7.32;5.45;;;;;;;23.64;40.97;95109.75;4998641;28;20195;-71
2022/09/09 08:21:11;;;;;;;6.68;5.57;;;;;;;23.96;40.59;95105.72;4996453;28;20220;-72
2022/09/09 08:23:39;;;;;;;7.70;5.13;;;;;;;24.21;40.38;95104.69;5004032;28;20222;-72
2022/09/09 08:26:11;;;;;;;6.78;5.43;;;;;;;24.43;39.92;95103.03;5009730;28;20596;-72
2022/09/09 08:28:37;;;;;;;7.43;5.35;;;;;;;24.64;38.47;95106.16;5005131;28;20250;-71
2022/09/09 08:31:16;;;;;;;6.40;5.22;;;;;;;24.64;39.14;95112.38;5007105;28;20227;-67
2022/09/09 08:33:45;;;;;;;5.97;4.97;;;;;;;24.42;38.98;95104.06;5003074;28;20234;-72
2022/09/09 08:36:16;;;;;;;6.95;5.63;;;;;;;24.70;38.99;95105.22;4993614;28;20226;-67
2022/09/09 08:38:42;;;;;;;7.47;5.28;;;;;;;24.69;39.50;95103.56;4997590;28;20248;-71
2022/09/09 08:41:31;;;;;;;6.47;5.47;;;;;;;24.94;39.08;95099.75;5001936;28;20237;-70
2022/09/09 08:44:24;;;;;;;7.93;5.55;;;;;;;24.97;38.50;95110.88;4996379;28;20231;-71
2022/09/09 08:46:49;;;;;;;5.90;5.38;;;;;;;24.91;38.54;95100.25;4996508;28;20282;-72
2022/09/09 08:49:53;;;;;;;5.85;5.05;;;;;;;24.87;38.80;95098.03;5001685;28;20215;-71
2022/09/09 08:52:45;;;;;;;9.40;6.18;;;;;;;25.12;38.11;95090.69;4997847;28;20214;-70
2022/09/09 08:55:35;;;;;;;7.10;5.72;;;;;;;25.11;38.54;95100.63;5002190;28;20283;-70
2022/09/09 08:58:09;;;;;;;6.00;5.40;;;;;;;25.16;39.49;95102.66;5001836;28;20206;-70
2022/09/09 09:01:01;;;;;;;9.05;6.30;;;;;;;25.30;38.63;95090.53;5014545;28;21111;-72
2022/09/09 09:03:54;;;;;;;6.80;6.10;;;;;;;25.20;38.55;95090.34;4969472;28;20261;-67
2022/09/09 09:06:41;;;;;;;7.35;5.90;;;;;;;25.28;38.55;95096.13;4952331;28;20291;-65
2022/09/09 09:09:30;;;;;;;5.97;5.32;;;;;;;25.26;38.40;95100.97;4966138;28;20243;-65
2022/09/09 09:12:01;;;;;;;5.55;4.93;;;;;;;25.60;37.67;95092.09;4965560;28;20232;-66
2022/09/09 09:14:30;;;;;;;6.28;5.22;;;;;;;25.88;37.18;95100.16;4955529;28;20295;-66
2022/09/09 09:17:06;;;;;;;6.72;5.38;;;;;;;26.08;36.51;95096.94;4969763;28;20711;-66
2022/09/09 09:19:34;;;;;;;6.40;5.43;;;;;;;26.06;36.85;95093.69;4969229;28;20274;-66
2022/09/09 09:22:22;;;;;;;6.60;5.07;;;;;;;26.07;36.29;95089.94;4953332;28;20590;-66
2022/09/09 09:24:59;;;;;;;6.65;5.80;;;;;;;26.01;36.73;95095.47;4947038;28;20240;-66
2022/09/09 09:27:35;;;;;;;8.88;5.80;;;;;;;25.78;37.29;95088.38;4974249;28;20231;-66
2022/09/09 09:30:11;;;;;;;8.55;5.32;;;;;;;25.78;36.95;95091.88;4953343;28;20220;-66
2022/09/09 09:32:38;;;;;;;6.82;5.82;;;;;;;25.87;37.00;95097.69;4955045;28;20677;-66
2022/09/09 09:35:11;;;;;;;6.20;5.70;;;;;;;25.86;37.47;95096.88;4968932;28;20228;-66
2022/09/09 09:37:36;;;;;;;7.65;5.80;;;;;;;25.04;38.58;95090.00;4929612;28;20221;-66
2022/09/09 09:40:18;;;;;;;5.28;4.78;;;;;;;25.62;37.08;95087.28;4981975;28;20212;-66
2022/09/09 09:43:08;;;;;;;7.68;5.07;;;;;;;26.10;36.19;95084.03;4988073;28;20596;-66
2022/09/09 09:45:41;;;;;;;11.40;5.60;;;;;;;26.54;35.66;95072.53;4992959;28;20247;-66
2022/09/09 09:48:10;;;;;;;6.88;5.28;;;;;;;26.60;35.87;95066.16;4978286;28;20228;-66
2022/09/09 09:56:32;;;;;;;8.07;5.50;;;;;;;26.74;35.80;95059.28;4984375;28;20254;-72
2022/09/09 09:58:58;;;;;;;9.20;5.32;;;;;;;26.56;36.06;95057.72;4985730;28;20235;-68
2022/09/09 10:01:28;;;;;;;6.15;5.55;;;;;;;26.63;35.47;95059.44;4985727;28;20215;-69
2022/09/09 10:04:19;;;;;;;8.02;5.88;;;;;;;26.58;35.09;95054.78;4989079;28;20309;-69
2022/09/09 10:06:45;;;;;;;7.82;5.10;;;;;;;26.47;35.51;95053.81;4982650;28;20255;-65
2022/09/09 10:09:28;;;;;;;7.60;5.97;;;;;;;26.22;36.62;95066.94;4985800;28;20255;-71
2022/09/09 10:12:06;;;;;;;7.05;5.68;;;;;;;26.15;36.63;95069.81;4987705;28;20220;-73
2022/09/09 10:15:02;;;;;;;10.40;6.10;;;;;;;25.83;37.92;95073.09;4987075;28;20257;-71
2022/09/09 10:17:45;;;;;;;8.07;5.30;;;;;;;25.52;38.03;95072.59;5003869;28;20250;-72
2022/09/09 10:20:10;;;;;;;8.95;5.90;;;;;;;25.85;37.80;95070.16;4987098;28;20227;-67
2022/09/09 10:22:38;;;;;;;6.40;5.63;;;;;;;25.73;38.33;95075.63;4988859;28;20224;-71
2022/09/09 10:25:18;;;;;;;7.55;5.78;;;;;;;25.83;37.45;95078.47;4991056;28;20235;-72
2022/09/09 10:28:13;;;;;;;6.88;5.97;;;;;;;25.89;37.26;95076.72;4994592;28;20246;-71
2022/09/09 10:31:12;;;;;;;7.18;6.15;;;;;;;25.87;38.33;95082.34;4988920;28;20229;-70
2022/09/09 10:34:20;;;;;;;7.85;5.57;;;;;;;25.63;38.47;95072.75;4989110;28;20223;-67
2022/09/09 10:36:50;;;;;;;7.82;6.20;;;;;;;25.57;39.88;95079.13;4985700;28;20227;-71
2022/09/09 10:39:40;;;;;;;10.65;6.47;;;;;;;25.66;38.93;95085.72;4991706;28;20307;-73
2022/09/09 10:42:16;;;;;;;6.72;5.93;;;;;;;25.67;38.24;95080.13;4983972;28;20228;-68
2022/09/09 10:44:50;;;;;;;7.95;5.97;;;;;;;25.75;38.56;95082.41;4987476;28;20219;-69
2022/09/09 10:47:16;;;;;;;6.22;5.63;;;;;;;25.78;38.42;95086.47;4990730;28;20242;-69
2022/09/09 10:50:23;;;;;;;7.70;6.15;;;;;;;25.96;37.87;95080.88;4991528;28;20223;-71
2022/09/09 10:53:10;;;;;;;12.10;6.13;;;;;;;25.92;38.14;95093.19;4985974;28;20262;-72
2022/09/09 10:55:41;;;;;;;10.43;6.80;;;;;;;25.83;38.54;95091.13;4997354;28;20227;-70
2022/09/09 10:58:14;;;;;;;6.65;5.82;;;;;;;25.86;37.92;95080.72;4991738;28;20299;-71
2022/09/09 11:00:51;;;;;;;7.95;5.68;;;;;;;25.68;38.46;95078.22;5001672;28;20624;-71
2022/09/09 11:03:27;;;;;;;9.05;6.88;;;;;;;25.46;39.50;95078.16;4993500;28;20254;-68
2022/09/09 11:05:57;;;;;;;10.32;6.60;;;;;;;25.38;39.98;95076.66;4980318;28;20223;-70
2022/09/09 11:08:29;;;;;;;7.60;6.18;;;;;;;25.52;39.86;95080.66;4978550;28;20234;-67
2022/09/09 11:10:58;;;;;;;7.75;7.00;;;;;;;25.56;39.61;95081.00;4980749;28;20716;-68
2022/09/09 11:13:51;;;;;;;9.55;6.93;;;;;;;25.74;39.60;95082.63;4990544;28;20207;-70
2022/09/09 11:16:48;;;;;;;8.68;6.47;;;;;;;25.99;38.72;95078.75;4985035;28;20270;-71
2022/09/09 11:19:22;;;;;;;9.32;6.60;;;;;;;26.16;38.47;95077.66;5000941;28;20714;-70
2022/09/09 11:21:57;;;;;;;11.77;7.32;;;;;;;26.41;38.15;95076.38;4983979;28;20207;-66
2022/09/09 11:24:46;;;;;;;8.93;7.85;;;;;;;26.63;37.94;95062.13;4982778;28;20230;-68
2022/09/09 11:27:37;;;;;;;9.80;7.50;;;;;;;26.60;37.91;95058.06;5011273;28;20321;-68
2022/09/09 11:30:16;;;;;;;8.25;6.55;;;;;;;26.64;38.10;95052.97;5009965;28;20242;-70
2022/09/09 11:33:16;;;;;;;7.88;6.95;;;;;;;26.66;38.19;95051.66;5021615;28;20231;-71
2022/09/09 11:36:00;;;;;;;7.45;6.75;;;;;;;26.83;37.54;95044.28;5001878;28;20244;-67
2022/09/09 11:38:46;;;;;;;8.48;6.93;;;;;;;26.86;37.26;95034.88;5006709;28;20284;-67
2022/09/09 11:41:13;;;;;;;7.88;7.18;;;;;;;26.81;38.02;95027.56;5006114;28;20266;-67
2022/09/09 11:43:43;;;;;;;10.13;6.65;;;;;;;26.90;38.02;95033.31;5015092;28;20214;-67
2022/09/09 11:46:10;;;;;;;10.38;7.57;;;;;;;26.84;37.68;95026.22;5003779;28;20207;-72
2022/09/09 11:48:45;;;;;;;10.82;7.63;;;;;;;26.77;37.85;95015.63;5011724;28;20333;-72
2022/09/09 11:51:25;;;;;;;8.30;6.90;;;;;;;26.90;37.77;95002.81;5010945;28;20711;-72
2022/09/09 11:53:54;;;;;;;8.77;7.15;;;;;;;26.98;37.39;94978.06;5021050;28;20581;-73
2022/09/09 11:56:43;;;;;;;11.88;7.93;;;;;;;27.23;37.14;94985.59;5006362;28;20219;-71
2022/09/09 11:59:30;;;;;;;9.00;7.90;;;;;;;27.30;37.84;94990.81;5008378;28;20272;-69